createdAt,value
2018-04-24T00:01:39.453Z,16.00
2018-04-24T00:04:06.325Z,16.00
2018-04-24T00:06:33.190Z,16.00
2018-04-24T00:09:00.052Z,15.90
2018-04-24T00:11:26.991Z,15.90
2018-04-24T00:13:53.856Z,15.70
2018-04-24T00:16:20.709Z,15.70
2018-04-24T00:18:47.656Z,15.60
2018-04-24T00:21:14.503Z,15.60
2018-04-24T00:23:41.384Z,15.50
2018-04-24T00:26:08.314Z,15.60
2018-04-24T00:28:35.191Z,15.70
2018-04-24T00:31:02.054Z,15.70
2018-04-24T00:33:28.927Z,15.60
2018-04-24T00:35:55.868Z,15.50
2018-04-24T00:38:22.708Z,15.40
2018-04-24T00:40:49.680Z,15.30
2018-04-24T00:43:16.534Z,15.40
2018-04-24T00:45:43.411Z,15.40
2018-04-24T00:48:10.264Z,15.30
2018-04-24T00:50:37.203Z,15.30
2018-04-24T00:56:01.957Z,15.30
2018-04-24T00:58:28.832Z,15.10
2018-04-24T01:00:55.710Z,15.00
2018-04-24T01:03:22.718Z,14.90
2018-04-24T01:05:49.958Z,14.90
2018-04-24T01:08:17.271Z,14.90
2018-04-24T01:10:44.156Z,14.90
2018-04-24T01:13:11.084Z,14.90
2018-04-24T01:15:37.947Z,14.90
2018-04-24T01:18:04.827Z,14.90
2018-04-24T01:20:31.754Z,14.80
2018-04-24T01:22:58.620Z,14.80
2018-04-24T01:25:25.649Z,14.70
2018-04-24T01:27:52.919Z,14.40
2018-04-24T01:30:20.156Z,14.40
2018-04-24T01:32:47.075Z,14.40
2018-04-24T01:35:13.953Z,14.40
2018-04-24T01:37:40.816Z,14.40
2018-04-24T01:40:07.666Z,14.30
2018-04-24T01:42:34.520Z,14.30
2018-04-24T01:45:01.461Z,14.30
2018-04-24T01:47:28.541Z,14.20
2018-04-24T01:49:55.481Z,14.10
2018-04-24T01:52:22.324Z,14.20
2018-04-24T01:54:49.188Z,14.10
2018-04-24T01:57:16.036Z,14.10
2018-04-24T01:59:42.996Z,14.00
2018-04-24T02:02:09.860Z,14.10
2018-04-24T02:04:36.743Z,14.10
2018-04-24T02:07:03.682Z,14.10
2018-04-24T02:09:30.637Z,14.00
2018-04-24T02:11:57.508Z,14.00
2018-04-24T02:14:24.368Z,14.00
2018-04-24T02:16:51.313Z,14.00
2018-04-24T02:19:18.267Z,14.00
2018-04-24T02:21:45.120Z,14.00
2018-04-24T02:24:11.984Z,14.00
2018-04-24T02:26:38.867Z,14.00
2018-04-24T02:29:05.893Z,14.00
2018-04-24T02:31:33.689Z,14.00
2018-04-24T02:34:00.549Z,14.00
2018-04-24T02:36:27.502Z,14.00
2018-04-24T02:38:54.366Z,13.90
2018-04-24T02:41:21.213Z,13.90
2018-04-24T02:43:48.177Z,13.70
2018-04-24T02:46:15.041Z,13.70
2018-04-24T02:48:42.123Z,13.70
2018-04-24T02:51:08.989Z,13.80
2018-04-24T02:53:35.840Z,13.80
2018-04-24T02:56:02.688Z,13.90
2018-04-24T02:58:29.531Z,13.90
2018-04-24T03:00:56.442Z,13.80
2018-04-24T03:03:23.270Z,13.80
2018-04-24T03:05:50.197Z,13.70
2018-04-24T03:08:17.037Z,13.60
2018-04-24T03:10:43.876Z,13.50
2018-04-24T03:13:11.128Z,13.50
2018-04-24T03:15:37.972Z,13.50
2018-04-24T03:18:07.349Z,13.40
2018-04-24T03:20:34.205Z,13.30
2018-04-24T03:23:01.051Z,13.20
2018-04-24T03:25:28.034Z,13.10
2018-04-24T03:27:54.917Z,12.90
2018-04-24T03:30:21.767Z,12.70
2018-04-24T03:32:48.697Z,12.60
2018-04-24T03:35:15.652Z,12.50
2018-04-24T03:37:42.522Z,12.50
2018-04-24T03:40:09.468Z,12.50
2018-04-24T03:42:36.427Z,12.60
2018-04-24T03:45:03.292Z,12.70
2018-04-24T03:47:30.252Z,12.60
2018-04-24T03:49:57.115Z,12.60
2018-04-24T03:52:24.257Z,12.50
2018-04-24T03:54:51.225Z,12.40
2018-04-24T03:57:18.134Z,12.40
2018-04-24T03:59:45.035Z,12.30
2018-04-24T04:02:11.941Z,12.30
2018-04-24T04:04:39.128Z,12.40
2018-04-24T04:07:06.439Z,12.50
2018-04-24T04:09:33.285Z,12.50
2018-04-24T04:12:02.355Z,12.60
2018-04-24T04:14:29.289Z,12.80
2018-04-24T04:16:56.140Z,12.80
2018-04-24T04:19:34.908Z,12.90
2018-04-24T04:22:14.011Z,13.10
2018-04-24T04:24:49.662Z,13.10
2018-04-24T04:27:16.616Z,13.10
2018-04-24T04:29:43.483Z,13.00
2018-04-24T04:32:10.348Z,13.10
2018-04-24T04:34:37.196Z,13.10
2018-04-24T04:37:12.037Z,13.10
2018-04-24T04:39:38.895Z,12.90
2018-04-24T04:42:05.761Z,12.40
2018-04-24T04:44:32.604Z,12.30
2018-04-24T04:47:01.089Z,12.30
2018-04-24T04:49:27.988Z,12.20
2018-04-24T04:51:54.852Z,12.30
2018-04-24T04:54:21.780Z,12.30
2018-04-24T04:56:48.742Z,12.20
2018-04-24T04:59:15.589Z,12.00
2018-04-24T05:01:42.444Z,12.00
2018-04-24T05:04:09.409Z,12.00
2018-04-24T05:06:36.260Z,12.10
2018-04-24T05:09:03.108Z,12.10
2018-04-24T05:11:29.967Z,12.30
2018-04-24T05:13:56.861Z,12.40
2018-04-24T05:16:23.791Z,12.40
2018-04-24T05:18:50.659Z,12.40
2018-04-24T05:21:17.546Z,12.20
2018-04-24T05:23:44.489Z,12.10
2018-04-24T05:26:11.427Z,12.10
2018-04-24T05:28:38.293Z,12.30
2018-04-24T05:31:05.185Z,12.60
2018-04-24T05:33:32.097Z,12.90
2018-04-24T05:35:58.950Z,12.90
2018-04-24T05:38:25.803Z,12.60
2018-04-24T05:40:52.668Z,12.40
2018-04-24T05:43:19.561Z,12.40
2018-04-24T05:45:46.404Z,12.30
2018-04-24T05:48:13.256Z,12.30
2018-04-24T05:50:40.124Z,12.40
2018-04-24T05:53:07.141Z,12.60
2018-04-24T05:55:34.005Z,12.70
2018-04-24T05:58:03.170Z,12.80
2018-04-24T06:00:30.093Z,13.10
2018-04-24T06:02:57.065Z,13.20
2018-04-24T06:05:23.940Z,13.30
2018-04-24T06:07:50.796Z,13.10
2018-04-24T06:10:17.636Z,12.90
2018-04-24T06:12:44.577Z,12.80
2018-04-24T06:15:11.608Z,12.80
2018-04-24T06:17:38.436Z,13.10
2018-04-24T06:20:05.289Z,13.20
2018-04-24T06:22:32.217Z,13.00
2018-04-24T06:24:59.434Z,13.00
2018-04-24T06:27:26.344Z,13.00
2018-04-24T06:29:53.205Z,13.30
2018-04-24T06:32:20.044Z,13.60
2018-04-24T06:34:47.008Z,13.90
2018-04-24T06:37:13.892Z,14.10
2018-04-24T06:39:40.833Z,13.90
2018-04-24T06:42:07.688Z,13.50
2018-04-24T06:44:34.644Z,13.40
2018-04-24T06:47:01.503Z,13.50
2018-04-24T06:49:28.374Z,13.90
2018-04-24T06:51:55.220Z,14.30
2018-04-24T06:54:22.159Z,14.60
2018-04-24T06:56:49.004Z,14.80
2018-04-24T06:59:15.891Z,14.80
2018-04-24T07:01:42.843Z,15.00
2018-04-24T07:04:09.713Z,15.30
2018-04-24T07:06:36.576Z,15.50
2018-04-24T07:09:03.471Z,15.60
2018-04-24T07:11:30.373Z,15.60
2018-04-24T07:13:57.372Z,15.70
2018-04-24T07:16:24.355Z,15.80
2018-04-24T07:18:51.588Z,16.10
2018-04-24T07:21:18.484Z,16.10
2018-04-24T07:23:45.743Z,16.30
2018-04-24T07:26:13.045Z,16.00
2018-04-24T07:28:39.953Z,16.00
2018-04-24T07:31:06.862Z,15.80
2018-04-24T07:33:33.695Z,15.60
2018-04-24T07:36:01.007Z,15.80
2018-04-24T07:38:27.858Z,15.80
2018-04-24T07:40:54.851Z,16.20
2018-04-24T07:43:23.528Z,16.40
2018-04-24T07:45:50.442Z,16.60
2018-04-24T07:48:17.719Z,16.60
2018-04-24T07:50:44.575Z,16.60
2018-04-24T07:53:11.424Z,16.80
2018-04-24T07:55:38.313Z,17.00
2018-04-24T07:58:05.204Z,17.20
2018-04-24T08:00:32.115Z,17.20
2018-04-24T08:02:59.092Z,17.30
2018-04-24T08:05:26.053Z,17.60
2018-04-24T08:07:52.899Z,17.80
2018-04-24T08:10:19.869Z,18.00
2018-04-24T08:12:46.744Z,18.00
2018-04-24T08:15:13.595Z,17.90
2018-04-24T08:17:40.533Z,18.00
2018-04-24T08:20:07.404Z,18.20
2018-04-24T08:22:38.132Z,18.10
2018-04-24T08:25:04.983Z,17.80
2018-04-24T08:27:31.950Z,17.50
2018-04-24T08:29:58.820Z,17.50
2018-04-24T08:32:25.720Z,17.70
2018-04-24T08:34:52.611Z,18.00
2018-04-24T08:37:19.481Z,17.60
2018-04-24T08:39:46.352Z,17.30
2018-04-24T08:42:13.200Z,17.00
2018-04-24T08:44:40.178Z,16.90
2018-04-24T08:47:07.032Z,16.90
2018-04-24T08:49:33.879Z,17.30
2018-04-24T08:52:00.744Z,17.50
2018-04-24T08:54:27.594Z,17.40
2018-04-24T08:56:54.537Z,17.60
2018-04-24T08:59:21.467Z,17.90
2018-04-24T09:01:48.863Z,17.90
2018-04-24T09:04:16.003Z,17.90
2018-04-24T09:06:43.315Z,17.20
2018-04-24T09:09:10.180Z,17.30
2018-04-24T09:11:37.732Z,17.20
2018-04-24T09:14:04.695Z,17.10
2018-04-24T09:16:31.530Z,17.30
2018-04-24T09:18:58.401Z,17.80
2018-04-24T09:21:25.378Z,18.30
2018-04-24T09:23:52.340Z,18.20
2018-04-24T09:26:19.205Z,18.10
2018-04-24T09:28:46.133Z,18.30
2018-04-24T09:31:13.077Z,18.70
2018-04-24T09:33:40.406Z,19.20
2018-04-24T09:36:07.327Z,19.20
2018-04-24T09:38:34.284Z,19.20
2018-04-24T09:41:01.166Z,19.30
2018-04-24T09:43:33.571Z,19.30
2018-04-24T09:46:00.569Z,19.50
2018-04-24T09:48:27.349Z,19.70
2018-04-24T09:50:54.300Z,19.90
2018-04-24T09:53:21.256Z,19.90
2018-04-24T09:55:48.192Z,19.80
2018-04-24T09:58:15.517Z,19.60
2018-04-24T10:00:42.454Z,19.60
2018-04-24T10:03:09.309Z,19.50
2018-04-24T10:05:36.169Z,19.70
2018-04-24T10:08:03.032Z,19.50
2018-04-24T10:10:29.987Z,19.00
2018-04-24T10:12:57.023Z,18.60
2018-04-24T10:15:24.122Z,18.60
2018-04-24T10:17:51.524Z,19.30
2018-04-24T10:20:18.840Z,19.40
2018-04-24T10:22:45.789Z,19.40
2018-04-24T10:25:12.735Z,19.00
2018-04-24T10:27:40.011Z,19.20
2018-04-24T10:30:06.910Z,19.20
2018-04-24T10:32:33.824Z,19.50
2018-04-24T10:35:00.688Z,19.40
2018-04-24T10:37:27.741Z,19.20
2018-04-24T10:39:54.520Z,19.40
2018-04-24T10:42:21.465Z,19.70
2018-04-24T10:44:48.422Z,19.80
2018-04-24T10:47:15.299Z,19.80
2018-04-24T10:49:42.233Z,20.00
2018-04-24T10:52:09.097Z,20.10
2018-04-24T10:54:35.939Z,20.10
2018-04-24T10:57:02.811Z,20.30
2018-04-24T10:59:29.684Z,20.30
2018-04-24T11:01:57.329Z,20.40
2018-04-24T11:04:24.797Z,20.40
2018-04-24T11:06:51.648Z,20.40
2018-04-24T11:09:18.624Z,20.00
2018-04-24T11:11:45.674Z,19.90
2018-04-24T11:14:12.564Z,20.00
2018-04-24T11:16:39.508Z,20.10
2018-04-24T11:19:06.401Z,20.10
2018-04-24T11:21:33.285Z,20.30
2018-04-24T11:24:00.622Z,20.50
2018-04-24T11:26:27.548Z,20.50
2018-04-24T11:28:54.407Z,20.60
2018-04-24T11:31:21.268Z,20.80
2018-04-24T11:33:48.229Z,20.70
2018-04-24T11:36:15.180Z,20.40
2018-04-24T11:38:42.037Z,19.90
2018-04-24T11:41:08.877Z,20.20
2018-04-24T11:43:35.892Z,20.50
2018-04-24T11:46:02.765Z,20.70
2018-04-24T11:51:16.275Z,21.10
2018-04-24T11:53:43.241Z,21.20
2018-04-24T11:56:10.110Z,21.40
2018-04-24T11:58:36.985Z,21.60
2018-04-24T12:01:03.817Z,21.70
2018-04-24T12:03:30.736Z,21.60
2018-04-24T12:05:58.070Z,21.80
2018-04-24T12:08:24.957Z,21.80
2018-04-24T12:10:51.867Z,21.80
2018-04-24T12:13:18.732Z,21.80
2018-04-24T12:15:45.757Z,21.90
2018-04-24T12:18:12.635Z,21.60
2018-04-24T12:20:39.488Z,21.50
2018-04-24T12:23:06.344Z,21.60
2018-04-24T12:25:33.203Z,21.30
2018-04-24T12:28:00.060Z,20.90
2018-04-24T12:30:27.085Z,20.80
2018-04-24T12:32:53.889Z,20.90
2018-04-24T12:35:20.835Z,21.00
2018-04-24T12:37:47.697Z,21.30
2018-04-24T12:40:14.661Z,21.60
2018-04-24T12:42:41.621Z,21.60
2018-04-24T12:45:08.531Z,21.40
2018-04-24T12:50:20.951Z,21.30
2018-04-24T12:52:47.946Z,21.60
2018-04-24T12:55:14.804Z,21.80
2018-04-24T12:57:41.750Z,21.90
2018-04-24T13:00:08.653Z,22.00
2018-04-24T13:02:35.531Z,22.20
2018-04-24T13:05:02.434Z,22.30
2018-04-24T13:07:29.700Z,22.50
2018-04-24T13:09:56.566Z,22.50
2018-04-24T13:12:23.837Z,22.50
2018-04-24T13:14:51.136Z,22.50
2018-04-24T13:17:18.005Z,22.50
2018-04-24T13:19:45.920Z,22.60
2018-04-24T13:22:12.828Z,22.50
2018-04-24T13:24:39.703Z,22.50
2018-04-24T13:27:06.550Z,22.50
2018-04-24T13:29:33.440Z,22.60
2018-04-24T13:32:00.300Z,22.60
2018-04-24T13:34:27.229Z,22.60
2018-04-24T13:36:54.179Z,22.60
2018-04-24T13:39:21.044Z,22.50
2018-04-24T13:41:47.900Z,22.60
2018-04-24T13:44:14.740Z,22.70
2018-04-24T13:46:41.802Z,22.80
2018-04-24T13:49:09.036Z,22.90
2018-04-24T13:51:35.936Z,22.90
2018-04-24T13:54:02.779Z,22.90
2018-04-24T13:56:29.624Z,22.70
2018-04-24T13:58:56.880Z,22.50
2018-04-24T14:01:24.137Z,22.70
2018-04-24T14:03:51.044Z,22.80
2018-04-24T14:06:18.006Z,22.90
2018-04-24T14:08:44.864Z,23.00
2018-04-24T14:11:11.720Z,23.00
2018-04-24T14:13:38.571Z,23.00
2018-04-24T14:16:05.629Z,23.00
2018-04-24T14:18:32.582Z,23.00
2018-04-24T14:20:59.824Z,23.20
2018-04-24T14:23:27.135Z,23.20
2018-04-24T14:25:54.003Z,23.20
2018-04-24T14:28:20.875Z,23.00
2018-04-24T14:30:47.759Z,23.00
2018-04-24T14:33:14.683Z,23.00
2018-04-24T14:35:41.625Z,23.10
2018-04-24T14:38:08.497Z,23.20
2018-04-24T14:40:35.451Z,23.50
2018-04-24T14:43:02.396Z,23.80
2018-04-24T14:45:29.277Z,24.00
2018-04-24T14:47:56.219Z,24.00
2018-04-24T14:50:23.149Z,23.90
2018-04-24T14:52:50.406Z,23.90
2018-04-24T14:55:17.641Z,23.90
2018-04-24T14:57:44.567Z,23.90
2018-04-24T15:00:11.516Z,23.70
2018-04-24T15:02:38.372Z,23.70
2018-04-24T15:05:05.344Z,23.60
2018-04-24T15:07:32.619Z,23.70
2018-04-24T15:09:59.576Z,23.70
2018-04-24T15:12:26.471Z,23.60
2018-04-24T15:14:53.374Z,23.70
2018-04-24T15:17:23.137Z,23.80
2018-04-24T15:19:50.057Z,23.80
2018-04-24T15:22:16.899Z,23.70
2018-04-24T15:24:43.761Z,23.60
2018-04-24T15:27:10.636Z,23.80
2018-04-24T15:29:37.535Z,23.80
2018-04-24T15:32:04.387Z,23.90
2018-04-24T15:34:31.300Z,24.10
2018-04-24T15:36:58.152Z,24.30
2018-04-24T15:39:24.999Z,24.40
2018-04-24T15:41:51.872Z,24.40
2018-04-24T15:44:18.720Z,24.30
2018-04-24T15:46:45.652Z,24.20
2018-04-24T15:49:12.901Z,24.00
2018-04-24T15:51:39.766Z,24.00
2018-04-24T15:54:07.071Z,24.00
2018-04-24T15:56:51.640Z,24.00
2018-04-24T15:59:18.489Z,23.80
2018-04-24T16:01:45.412Z,23.70
2018-04-24T16:04:12.268Z,23.50
2018-04-24T16:06:39.265Z,23.40
2018-04-24T16:09:06.552Z,23.20
2018-04-24T16:11:33.412Z,23.20
2018-04-24T16:14:00.262Z,23.20
2018-04-24T16:16:27.128Z,23.20
2018-04-24T16:18:54.069Z,23.10
2018-04-24T16:21:21.048Z,23.20
2018-04-24T16:23:47.936Z,23.00
2018-04-24T16:26:14.783Z,22.90
2018-04-24T16:28:41.712Z,22.80
2018-04-24T16:31:08.549Z,22.80
2018-04-24T16:33:35.421Z,22.90
2018-04-24T16:36:02.413Z,22.80
2018-04-24T16:38:29.283Z,22.80
2018-04-24T16:40:56.242Z,22.80
2018-04-24T16:43:23.148Z,22.80
2018-04-24T16:45:50.013Z,22.70
2018-04-24T16:48:16.999Z,22.80
2018-04-24T16:50:43.947Z,22.90
2018-04-24T16:53:10.883Z,23.20
2018-04-24T16:55:37.754Z,23.40
2018-04-24T16:58:04.593Z,23.70
2018-04-24T17:00:31.630Z,23.90
2018-04-24T17:02:58.443Z,23.90
2018-04-24T17:05:25.372Z,23.90
2018-04-24T17:07:52.240Z,23.90
2018-04-24T17:10:19.214Z,24.00
2018-04-24T17:12:46.064Z,23.90
2018-04-24T17:15:12.933Z,23.80
2018-04-24T17:17:39.878Z,23.70
2018-04-24T17:20:06.826Z,23.60
2018-04-24T17:22:33.787Z,23.60
2018-04-24T17:25:00.652Z,23.60
2018-04-24T17:27:27.842Z,23.50
2018-04-24T17:29:54.694Z,23.70
2018-04-24T17:32:21.540Z,23.80
2018-04-24T17:34:48.420Z,23.90
2018-04-24T17:37:15.300Z,23.90
2018-04-24T17:39:42.142Z,23.90
2018-04-24T17:42:09.397Z,23.50
2018-04-24T17:44:36.308Z,23.50
2018-04-24T17:47:03.167Z,23.30
2018-04-24T17:49:30.184Z,23.00
2018-04-24T17:51:57.028Z,22.70
2018-04-24T17:54:23.909Z,22.50
2018-04-24T17:56:57.173Z,22.30
2018-04-24T17:59:24.027Z,22.30
2018-04-24T18:01:50.887Z,22.30
2018-04-24T18:04:17.820Z,22.20
2018-04-24T18:06:44.796Z,22.00
2018-04-24T18:09:11.636Z,22.00
2018-04-24T18:11:38.532Z,21.80
2018-04-24T18:14:05.475Z,21.60
2018-04-24T18:16:32.320Z,21.60
2018-04-24T18:18:59.272Z,21.60
2018-04-24T18:21:26.149Z,21.50
2018-04-24T18:23:52.980Z,21.40
2018-04-24T18:26:19.841Z,21.40
2018-04-24T18:28:46.802Z,21.40
2018-04-24T18:31:13.763Z,21.30
2018-04-24T18:33:40.616Z,21.20
2018-04-24T18:36:07.480Z,21.10
2018-04-24T18:38:34.452Z,21.10
2018-04-24T18:41:01.391Z,21.10
2018-04-24T18:43:28.268Z,21.00
2018-04-24T18:45:55.307Z,20.90
2018-04-24T18:48:22.494Z,20.80
2018-04-24T18:50:49.338Z,20.80
2018-04-24T18:53:16.320Z,20.70
2018-04-24T18:55:43.153Z,20.70
2018-04-24T18:58:10.004Z,20.80
2018-04-24T19:00:38.088Z,20.70
2018-04-24T19:03:05.053Z,20.60
2018-04-24T19:05:31.907Z,20.60
2018-04-24T19:07:58.768Z,20.60
2018-04-24T19:10:25.712Z,20.50
2018-04-24T19:12:52.557Z,20.50
2018-04-24T19:15:19.539Z,20.40
2018-04-24T19:17:46.756Z,20.40
2018-04-24T19:20:13.620Z,20.40
2018-04-24T19:22:40.912Z,20.30
2018-04-24T19:25:07.775Z,20.30
2018-04-24T19:27:34.645Z,20.30
2018-04-24T19:30:01.605Z,20.30
2018-04-24T19:32:28.577Z,20.30
2018-04-24T19:34:55.581Z,20.10
2018-04-24T19:37:22.536Z,20.10
2018-04-24T19:39:49.440Z,20.00
2018-04-24T19:42:16.396Z,20.00
2018-04-24T19:44:43.264Z,19.90
2018-04-24T19:47:10.140Z,19.80
2018-04-24T19:49:36.984Z,19.60
2018-04-24T19:52:03.856Z,19.50
2018-04-24T19:54:30.699Z,19.30
2018-04-24T19:56:57.647Z,19.40
2018-04-24T19:59:24.487Z,19.30
2018-04-24T20:01:51.353Z,19.30
2018-04-24T20:04:18.222Z,19.20
2018-04-24T20:06:45.460Z,19.10
2018-04-24T20:09:12.488Z,19.10
2018-04-24T20:11:40.617Z,18.90
2018-04-24T20:14:07.487Z,18.80
2018-04-24T20:16:35.032Z,18.80
2018-04-24T20:19:01.916Z,18.70
2018-04-24T20:21:28.771Z,18.60
2018-04-24T20:23:55.670Z,18.50
2018-04-24T20:26:22.599Z,18.50
2018-04-24T20:28:49.633Z,18.40
2018-04-24T20:31:16.512Z,18.40
2018-04-24T20:33:43.392Z,18.30
2018-04-24T20:36:10.513Z,18.30
2018-04-24T20:38:39.938Z,18.20
2018-04-24T20:41:06.903Z,18.20
2018-04-24T20:43:33.773Z,18.10
2018-04-24T20:46:00.637Z,17.90
2018-04-24T20:48:27.592Z,17.80
2018-04-24T20:50:54.448Z,17.80
2018-04-24T20:53:21.415Z,17.70
2018-04-24T20:55:48.248Z,17.70
2018-04-24T20:58:15.139Z,17.70
2018-04-24T21:00:41.990Z,17.60
2018-04-24T21:03:08.864Z,17.40
2018-04-24T21:05:35.783Z,17.40
2018-04-24T21:08:02.739Z,17.30
2018-04-24T21:10:29.712Z,17.30
2018-04-24T21:12:56.761Z,17.20
2018-04-24T21:15:23.603Z,17.20
2018-04-24T21:17:50.472Z,17.10
2018-04-24T21:20:17.335Z,17.00
2018-04-24T21:22:44.203Z,17.00
2018-04-24T21:25:11.070Z,17.10
2018-04-24T21:27:37.927Z,17.10
2018-04-24T21:30:04.861Z,17.10
2018-04-24T21:32:31.811Z,17.00
2018-04-24T21:34:58.671Z,16.90
2018-04-24T21:37:25.504Z,16.80
2018-04-24T21:39:52.807Z,16.80
2018-04-24T21:42:19.668Z,16.80
2018-04-24T21:44:46.621Z,16.70
2018-04-24T21:47:13.476Z,16.70
2018-04-24T21:49:40.408Z,16.60
2018-04-24T21:52:07.644Z,16.60
2018-04-24T21:54:34.556Z,16.60
2018-04-24T21:57:01.423Z,16.60
2018-04-24T21:59:28.280Z,16.60
2018-04-24T22:01:55.220Z,16.70
2018-04-24T22:04:22.091Z,16.70
2018-04-24T22:06:49.044Z,16.70
2018-04-24T22:09:15.931Z,16.70
2018-04-24T22:11:42.807Z,16.70
2018-04-24T22:14:09.727Z,16.50
2018-04-24T22:16:37.282Z,16.40
2018-04-24T22:19:04.767Z,16.20
2018-04-24T22:21:31.632Z,16.10
2018-04-24T22:23:58.490Z,16.00
2018-04-24T22:26:25.371Z,16.00
2018-04-24T22:28:52.301Z,16.00
2018-04-24T22:31:19.165Z,16.00
2018-04-24T22:33:46.021Z,16.10
2018-04-24T22:36:12.872Z,16.00
2018-04-24T22:38:39.744Z,15.90
2018-04-24T22:41:06.588Z,16.00
2018-04-24T22:43:33.536Z,15.90
2018-04-24T22:46:00.508Z,15.80
2018-04-24T22:48:27.399Z,15.80
2018-04-24T22:50:54.239Z,15.70
2018-04-24T22:53:21.105Z,15.60
2018-04-24T22:55:47.972Z,15.60
2018-04-24T22:58:14.843Z,15.50
2018-04-24T23:00:42.097Z,15.60
2018-04-24T23:03:08.954Z,15.60
2018-04-24T23:05:35.832Z,15.60
2018-04-24T23:08:03.082Z,15.60
2018-04-24T23:10:42.002Z,15.60
2018-04-24T23:13:20.792Z,15.40
2018-04-24T23:16:00.979Z,15.40
2018-04-24T23:18:39.744Z,15.30
2018-04-24T23:21:06.128Z,15.20
2018-04-24T23:23:33.420Z,15.10
2018-04-24T23:26:00.300Z,15.20
2018-04-24T23:28:27.255Z,15.10
2018-04-24T23:30:54.111Z,15.00
2018-04-24T23:33:21.055Z,15.10
2018-04-24T23:35:48.020Z,15.00
2018-04-24T23:38:14.871Z,15.00
2018-04-24T23:40:41.716Z,14.90
2018-04-24T23:43:08.588Z,14.90
2018-04-24T23:45:35.454Z,14.90
2018-04-24T23:48:02.304Z,14.80
2018-04-24T23:50:29.194Z,14.80
2018-04-24T23:52:56.050Z,14.80
2018-04-24T23:55:22.892Z,14.70
2018-04-24T23:57:49.835Z,14.60
